sensor_id;sensor_type;location;lat;lon;timestamp;temperature;humidity
3562;DHT22;1795;52.074;4.754;2022-07-19T00:01:24;24.40;93.90
3562;DHT22;1795;52.074;4.754;2022-07-19T00:03:53;24.30;94.60
3562;DHT22;1795;52.074;4.754;2022-07-19T00:06:22;24.30;94.40
3562;DHT22;1795;52.074;4.754;2022-07-19T00:08:51;24.30;94.50
3562;DHT22;1795;52.074;4.754;2022-07-19T00:11:19;24.20;94.60
3562;DHT22;1795;52.074;4.754;2022-07-19T00:13:47;24.20;94.80
3562;DHT22;1795;52.074;4.754;2022-07-19T00:16:15;24.20;95.10
3562;DHT22;1795;52.074;4.754;2022-07-19T00:18:44;24.20;95.00
3562;DHT22;1795;52.074;4.754;2022-07-19T00:21:12;24.10;95.20
3562;DHT22;1795;52.074;4.754;2022-07-19T00:23:41;24.00;95.20
3562;DHT22;1795;52.074;4.754;2022-07-19T00:26:09;24.00;95.30
3562;DHT22;1795;52.074;4.754;2022-07-19T00:28:37;23.90;95.60
3562;DHT22;1795;52.074;4.754;2022-07-19T00:31:05;23.90;95.20
3562;DHT22;1795;52.074;4.754;2022-07-19T00:33:33;23.90;95.50
3562;DHT22;1795;52.074;4.754;2022-07-19T00:36:02;23.80;95.40
3562;DHT22;1795;52.074;4.754;2022-07-19T00:38:30;23.80;95.80
3562;DHT22;1795;52.074;4.754;2022-07-19T00:41:00;23.80;95.80
3562;DHT22;1795;52.074;4.754;2022-07-19T00:43:29;23.70;96.00
3562;DHT22;1795;52.074;4.754;2022-07-19T00:45:57;23.70;96.30
3562;DHT22;1795;52.074;4.754;2022-07-19T00:48:25;23.70;96.60
3562;DHT22;1795;52.074;4.754;2022-07-19T00:50:53;23.60;96.40
3562;DHT22;1795;52.074;4.754;2022-07-19T00:53:22;23.60;96.80
3562;DHT22;1795;52.074;4.754;2022-07-19T00:55:51;23.60;96.60
3562;DHT22;1795;52.074;4.754;2022-07-19T00:58:24;23.50;96.70
3562;DHT22;1795;52.074;4.754;2022-07-19T01:00:53;23.50;96.60
3562;DHT22;1795;52.074;4.754;2022-07-19T01:03:21;23.50;97.10
3562;DHT22;1795;52.074;4.754;2022-07-19T01:05:49;23.40;96.90
3562;DHT22;1795;52.074;4.754;2022-07-19T01:08:18;23.40;97.00
3562;DHT22;1795;52.074;4.754;2022-07-19T01:10:46;23.30;96.90
3562;DHT22;1795;52.074;4.754;2022-07-19T01:13:15;23.30;97.10
3562;DHT22;1795;52.074;4.754;2022-07-19T01:15:44;23.30;96.90
3562;DHT22;1795;52.074;4.754;2022-07-19T01:18:12;23.20;97.50
3562;DHT22;1795;52.074;4.754;2022-07-19T01:20:41;23.20;97.40
3562;DHT22;1795;52.074;4.754;2022-07-19T01:23:10;23.20;97.10
3562;DHT22;1795;52.074;4.754;2022-07-19T01:25:38;23.10;97.10
3562;DHT22;1795;52.074;4.754;2022-07-19T01:28:08;23.10;97.30
3562;DHT22;1795;52.074;4.754;2022-07-19T01:30:36;23.10;97.20
3562;DHT22;1795;52.074;4.754;2022-07-19T01:33:05;23.00;97.10
3562;DHT22;1795;52.074;4.754;2022-07-19T01:35:33;23.00;97.10
3562;DHT22;1795;52.074;4.754;2022-07-19T01:38:01;23.00;97.40
3562;DHT22;1795;52.074;4.754;2022-07-19T01:40:30;22.90;97.40
3562;DHT22;1795;52.074;4.754;2022-07-19T01:43:00;22.90;97.10
3562;DHT22;1795;52.074;4.754;2022-07-19T01:45:28;22.90;97.30
3562;DHT22;1795;52.074;4.754;2022-07-19T01:47:55;22.80;97.30
3562;DHT22;1795;52.074;4.754;2022-07-19T01:50:23;22.80;97.60
3562;DHT22;1795;52.074;4.754;2022-07-19T01:52:52;22.80;98.00
3562;DHT22;1795;52.074;4.754;2022-07-19T01:55:20;22.70;97.80
3562;DHT22;1795;52.074;4.754;2022-07-19T01:57:50;22.70;98.00
3562;DHT22;1795;52.074;4.754;2022-07-19T02:00:18;22.70;98.00
3562;DHT22;1795;52.074;4.754;2022-07-19T02:02:46;22.60;98.00
3562;DHT22;1795;52.074;4.754;2022-07-19T02:05:15;22.60;98.00
3562;DHT22;1795;52.074;4.754;2022-07-19T02:07:46;22.60;98.10
3562;DHT22;1795;52.074;4.754;2022-07-19T02:10:16;22.60;98.00
3562;DHT22;1795;52.074;4.754;2022-07-19T02:12:45;22.50;98.00
3562;DHT22;1795;52.074;4.754;2022-07-19T02:15:14;22.50;98.10
3562;DHT22;1795;52.074;4.754;2022-07-19T02:17:42;22.50;98.40
3562;DHT22;1795;52.074;4.754;2022-07-19T02:20:11;22.40;98.40
3562;DHT22;1795;52.074;4.754;2022-07-19T02:22:40;22.40;98.30
3562;DHT22;1795;52.074;4.754;2022-07-19T02:25:08;22.40;98.30
3562;DHT22;1795;52.074;4.754;2022-07-19T02:27:36;22.40;98.80
3562;DHT22;1795;52.074;4.754;2022-07-19T02:30:05;22.40;99.00
3562;DHT22;1795;52.074;4.754;2022-07-19T02:32:35;22.30;98.90
3562;DHT22;1795;52.074;4.754;2022-07-19T02:35:03;22.30;99.10
3562;DHT22;1795;52.074;4.754;2022-07-19T02:37:31;22.30;98.80
3562;DHT22;1795;52.074;4.754;2022-07-19T02:39:59;22.20;98.40
3562;DHT22;1795;52.074;4.754;2022-07-19T02:42:27;22.20;98.70
3562;DHT22;1795;52.074;4.754;2022-07-19T02:44:55;22.20;98.50
3562;DHT22;1795;52.074;4.754;2022-07-19T02:47:23;22.20;98.60
3562;DHT22;1795;52.074;4.754;2022-07-19T02:49:53;22.10;99.20
3562;DHT22;1795;52.074;4.754;2022-07-19T02:52:21;22.10;99.00
3562;DHT22;1795;52.074;4.754;2022-07-19T02:54:49;22.10;99.00
3562;DHT22;1795;52.074;4.754;2022-07-19T02:57:17;22.10;99.10
3562;DHT22;1795;52.074;4.754;2022-07-19T02:59:45;22.00;98.80
3562;DHT22;1795;52.074;4.754;2022-07-19T03:02:12;22.00;99.40
3562;DHT22;1795;52.074;4.754;2022-07-19T03:04:40;22.00;99.30
3562;DHT22;1795;52.074;4.754;2022-07-19T03:07:10;22.00;99.20
3562;DHT22;1795;52.074;4.754;2022-07-19T03:09:38;22.00;99.10
3562;DHT22;1795;52.074;4.754;2022-07-19T03:12:06;21.90;99.40
3562;DHT22;1795;52.074;4.754;2022-07-19T03:14:34;21.90;98.80
3562;DHT22;1795;52.074;4.754;2022-07-19T03:17:02;21.90;99.10
3562;DHT22;1795;52.074;4.754;2022-07-19T03:19:30;21.80;99.00
3562;DHT22;1795;52.074;4.754;2022-07-19T03:21:58;21.80;99.80
3562;DHT22;1795;52.074;4.754;2022-07-19T03:24:27;21.80;99.20
3562;DHT22;1795;52.074;4.754;2022-07-19T03:26:55;21.80;99.30
3562;DHT22;1795;52.074;4.754;2022-07-19T03:29:23;21.70;99.70
3562;DHT22;1795;52.074;4.754;2022-07-19T03:31:56;21.70;99.20
3562;DHT22;1795;52.074;4.754;2022-07-19T03:34:24;21.70;99.50
3562;DHT22;1795;52.074;4.754;2022-07-19T03:36:52;21.60;99.40
3562;DHT22;1795;52.074;4.754;2022-07-19T03:39:20;21.60;99.80
3562;DHT22;1795;52.074;4.754;2022-07-19T03:41:49;21.60;99.60
3562;DHT22;1795;52.074;4.754;2022-07-19T03:44:25;21.60;99.80
3562;DHT22;1795;52.074;4.754;2022-07-19T03:46:53;21.50;99.90
3562;DHT22;1795;52.074;4.754;2022-07-19T03:49:22;21.50;99.90
3562;DHT22;1795;52.074;4.754;2022-07-19T03:51:50;21.50;99.90
3562;DHT22;1795;52.074;4.754;2022-07-19T03:54:18;21.50;99.90
3562;DHT22;1795;52.074;4.754;2022-07-19T03:56:46;21.40;99.90
3562;DHT22;1795;52.074;4.754;2022-07-19T03:59:15;21.40;99.90
3562;DHT22;1795;52.074;4.754;2022-07-19T04:01:43;21.40;99.90
3562;DHT22;1795;52.074;4.754;2022-07-19T04:04:11;21.40;99.90
3562;DHT22;1795;52.074;4.754;2022-07-19T04:06:39;21.30;99.90
3562;DHT22;1795;52.074;4.754;2022-07-19T04:09:07;21.30;99.90
3562;DHT22;1795;52.074;4.754;2022-07-19T04:11:35;21.30;99.90
3562;DHT22;1795;52.074;4.754;2022-07-19T04:14:03;21.20;99.90
3562;DHT22;1795;52.074;4.754;2022-07-19T04:16:33;21.20;99.90
3562;DHT22;1795;52.074;4.754;2022-07-19T04:19:01;21.20;99.90
3562;DHT22;1795;52.074;4.754;2022-07-19T04:21:29;21.20;99.90
3562;DHT22;1795;52.074;4.754;2022-07-19T04:23:57;21.20;99.90
3562;DHT22;1795;52.074;4.754;2022-07-19T04:26:25;21.10;99.90
3562;DHT22;1795;52.074;4.754;2022-07-19T04:28:53;21.20;99.90
3562;DHT22;1795;52.074;4.754;2022-07-19T04:31:21;21.10;99.90
3562;DHT22;1795;52.074;4.754;2022-07-19T04:33:51;21.10;99.90
3562;DHT22;1795;52.074;4.754;2022-07-19T04:36:19;21.10;99.90
3562;DHT22;1795;52.074;4.754;2022-07-19T04:38:47;21.10;99.90
3562;DHT22;1795;52.074;4.754;2022-07-19T04:41:14;21.10;99.90
3562;DHT22;1795;52.074;4.754;2022-07-19T04:43:42;21.10;99.90
3562;DHT22;1795;52.074;4.754;2022-07-19T04:46:10;21.00;99.90
3562;DHT22;1795;52.074;4.754;2022-07-19T04:48:39;21.00;99.90
3562;DHT22;1795;52.074;4.754;2022-07-19T04:51:09;21.00;99.90
3562;DHT22;1795;52.074;4.754;2022-07-19T04:53:37;21.00;99.90
3562;DHT22;1795;52.074;4.754;2022-07-19T04:56:06;21.00;99.90
3562;DHT22;1795;52.074;4.754;2022-07-19T04:58:34;21.00;99.90
3562;DHT22;1795;52.074;4.754;2022-07-19T05:01:02;21.00;99.90
3562;DHT22;1795;52.074;4.754;2022-07-19T05:03:30;21.00;99.90
3562;DHT22;1795;52.074;4.754;2022-07-19T05:05:58;21.00;99.90
3562;DHT22;1795;52.074;4.754;2022-07-19T05:08:27;21.00;99.90
3562;DHT22;1795;52.074;4.754;2022-07-19T05:10:55;21.00;99.90
3562;DHT22;1795;52.074;4.754;2022-07-19T05:13:23;21.00;99.90
3562;DHT22;1795;52.074;4.754;2022-07-19T05:15:51;21.00;99.90
3562;DHT22;1795;52.074;4.754;2022-07-19T05:18:19;21.00;99.90
3562;DHT22;1795;52.074;4.754;2022-07-19T05:20:47;21.00;99.90
3562;DHT22;1795;52.074;4.754;2022-07-19T05:23:15;21.00;99.90
3562;DHT22;1795;52.074;4.754;2022-07-19T05:25:45;21.00;99.90
3562;DHT22;1795;52.074;4.754;2022-07-19T05:28:13;21.00;99.90
3562;DHT22;1795;52.074;4.754;2022-07-19T05:30:40;21.00;99.90
3562;DHT22;1795;52.074;4.754;2022-07-19T05:33:10;21.00;99.90
3562;DHT22;1795;52.074;4.754;2022-07-19T05:35:38;21.00;99.90
3562;DHT22;1795;52.074;4.754;2022-07-19T05:38:06;21.00;99.90
3562;DHT22;1795;52.074;4.754;2022-07-19T05:40:35;21.10;99.90
3562;DHT22;1795;52.074;4.754;2022-07-19T05:43:05;21.10;99.90
3562;DHT22;1795;52.074;4.754;2022-07-19T05:45:33;21.10;99.90
3562;DHT22;1795;52.074;4.754;2022-07-19T05:48:01;21.10;99.90
3562;DHT22;1795;52.074;4.754;2022-07-19T05:50:29;21.10;99.90
3562;DHT22;1795;52.074;4.754;2022-07-19T05:52:57;21.20;99.90
3562;DHT22;1795;52.074;4.754;2022-07-19T05:55:25;21.20;99.90
3562;DHT22;1795;52.074;4.754;2022-07-19T05:57:53;21.20;99.90
3562;DHT22;1795;52.074;4.754;2022-07-19T06:00:22;21.20;99.90
3562;DHT22;1795;52.074;4.754;2022-07-19T06:02:50;21.30;99.90
3562;DHT22;1795;52.074;4.754;2022-07-19T06:05:18;21.30;99.90
3562;DHT22;1795;52.074;4.754;2022-07-19T06:07:46;21.40;99.90
3562;DHT22;1795;52.074;4.754;2022-07-19T06:10:14;21.50;99.90
3562;DHT22;1795;52.074;4.754;2022-07-19T06:12:42;21.50;99.90
3562;DHT22;1795;52.074;4.754;2022-07-19T06:15:11;21.60;99.90
3562;DHT22;1795;52.074;4.754;2022-07-19T06:17:40;21.70;99.90
3562;DHT22;1795;52.074;4.754;2022-07-19T06:20:09;21.80;99.90
3562;DHT22;1795;52.074;4.754;2022-07-19T06:22:37;21.90;99.90
3562;DHT22;1795;52.074;4.754;2022-07-19T06:25:06;22.00;99.90
3562;DHT22;1795;52.074;4.754;2022-07-19T06:27:34;22.00;99.90
3562;DHT22;1795;52.074;4.754;2022-07-19T06:30:03;22.10;99.90
3562;DHT22;1795;52.074;4.754;2022-07-19T06:32:31;22.20;99.90
3562;DHT22;1795;52.074;4.754;2022-07-19T06:35:00;22.30;99.90
3562;DHT22;1795;52.074;4.754;2022-07-19T06:37:28;22.40;99.90
3562;DHT22;1795;52.074;4.754;2022-07-19T06:39:56;22.50;99.90
3562;DHT22;1795;52.074;4.754;2022-07-19T06:42:24;22.60;99.90
3562;DHT22;1795;52.074;4.754;2022-07-19T06:44:52;22.70;99.90
3562;DHT22;1795;52.074;4.754;2022-07-19T06:47:20;22.80;99.90
3562;DHT22;1795;52.074;4.754;2022-07-19T06:49:48;23.00;99.90
3562;DHT22;1795;52.074;4.754;2022-07-19T06:52:17;23.10;99.90
3562;DHT22;1795;52.074;4.754;2022-07-19T06:54:45;23.20;99.90
3562;DHT22;1795;52.074;4.754;2022-07-19T06:57:13;23.30;99.90
3562;DHT22;1795;52.074;4.754;2022-07-19T06:59:42;23.50;99.90
3562;DHT22;1795;52.074;4.754;2022-07-19T07:02:10;23.60;99.90
3562;DHT22;1795;52.074;4.754;2022-07-19T07:04:38;23.70;99.90
3562;DHT22;1795;52.074;4.754;2022-07-19T07:07:12;23.90;99.90
3562;DHT22;1795;52.074;4.754;2022-07-19T07:09:41;24.00;99.90
3562;DHT22;1795;52.074;4.754;2022-07-19T07:12:09;24.20;99.90
3562;DHT22;1795;52.074;4.754;2022-07-19T07:14:37;24.30;99.90
3562;DHT22;1795;52.074;4.754;2022-07-19T07:17:05;24.40;99.90
3562;DHT22;1795;52.074;4.754;2022-07-19T07:19:33;24.50;99.90
3562;DHT22;1795;52.074;4.754;2022-07-19T07:22:02;24.70;99.90
3562;DHT22;1795;52.074;4.754;2022-07-19T07:24:30;24.80;99.90
3562;DHT22;1795;52.074;4.754;2022-07-19T07:26:59;24.90;99.90
3562;DHT22;1795;52.074;4.754;2022-07-19T07:29:27;24.90;99.90
3562;DHT22;1795;52.074;4.754;2022-07-19T07:31:55;25.00;99.90
3562;DHT22;1795;52.074;4.754;2022-07-19T07:34:24;25.10;99.90
3562;DHT22;1795;52.074;4.754;2022-07-19T07:36:52;25.10;99.90
3562;DHT22;1795;52.074;4.754;2022-07-19T07:39:20;25.10;99.90
3562;DHT22;1795;52.074;4.754;2022-07-19T07:41:48;25.20;99.90
3562;DHT22;1795;52.074;4.754;2022-07-19T07:44:32;25.20;99.90
3562;DHT22;1795;52.074;4.754;2022-07-19T07:47:00;25.30;99.90
3562;DHT22;1795;52.074;4.754;2022-07-19T07:49:28;25.30;99.90
3562;DHT22;1795;52.074;4.754;2022-07-19T07:51:56;25.40;99.90
3562;DHT22;1795;52.074;4.754;2022-07-19T07:54:25;25.50;99.90
3562;DHT22;1795;52.074;4.754;2022-07-19T07:56:53;25.50;99.90
3562;DHT22;1795;52.074;4.754;2022-07-19T07:59:21;25.80;99.90
3562;DHT22;1795;52.074;4.754;2022-07-19T08:01:51;26.00;99.90
3562;DHT22;1795;52.074;4.754;2022-07-19T08:04:25;26.20;99.90
3562;DHT22;1795;52.074;4.754;2022-07-19T08:06:53;26.40;99.90
3562;DHT22;1795;52.074;4.754;2022-07-19T08:09:22;26.50;99.90
3562;DHT22;1795;52.074;4.754;2022-07-19T08:11:50;26.60;99.90
3562;DHT22;1795;52.074;4.754;2022-07-19T08:14:18;26.80;99.90
3562;DHT22;1795;52.074;4.754;2022-07-19T08:16:46;26.80;99.90
3562;DHT22;1795;52.074;4.754;2022-07-19T08:19:15;27.00;99.90
3562;DHT22;1795;52.074;4.754;2022-07-19T08:21:43;27.10;99.90
3562;DHT22;1795;52.074;4.754;2022-07-19T08:24:11;27.20;99.90
3562;DHT22;1795;52.074;4.754;2022-07-19T08:26:39;27.40;99.90
3562;DHT22;1795;52.074;4.754;2022-07-19T08:29:07;27.40;99.90
3562;DHT22;1795;52.074;4.754;2022-07-19T08:31:35;27.50;99.90
3562;DHT22;1795;52.074;4.754;2022-07-19T08:34:04;27.60;99.90
3562;DHT22;1795;52.074;4.754;2022-07-19T08:36:34;27.70;99.90
3562;DHT22;1795;52.074;4.754;2022-07-19T08:39:02;27.80;99.90
3562;DHT22;1795;52.074;4.754;2022-07-19T08:41:31;27.90;99.90
3562;DHT22;1795;52.074;4.754;2022-07-19T08:44:02;28.00;99.90
3562;DHT22;1795;52.074;4.754;2022-07-19T08:46:30;28.10;99.90
3562;DHT22;1795;52.074;4.754;2022-07-19T08:48:59;28.20;99.60
3562;DHT22;1795;52.074;4.754;2022-07-19T08:51:27;28.20;99.50
3562;DHT22;1795;52.074;4.754;2022-07-19T08:53:57;28.30;99.20
3562;DHT22;1795;52.074;4.754;2022-07-19T08:56:25;28.40;98.10
3562;DHT22;1795;52.074;4.754;2022-07-19T08:59:11;28.50;97.50
3562;DHT22;1795;52.074;4.754;2022-07-19T09:01:39;28.60;97.50
3562;DHT22;1795;52.074;4.754;2022-07-19T09:04:10;28.60;97.40
3562;DHT22;1795;52.074;4.754;2022-07-19T09:06:42;28.70;97.60
3562;DHT22;1795;52.074;4.754;2022-07-19T09:09:12;28.80;98.00
3562;DHT22;1795;52.074;4.754;2022-07-19T09:11:43;28.90;97.50
3562;DHT22;1795;52.074;4.754;2022-07-19T09:14:17;29.00;97.50
3562;DHT22;1795;52.074;4.754;2022-07-19T09:16:57;29.10;97.50
3562;DHT22;1795;52.074;4.754;2022-07-19T09:19:33;29.20;97.10
3562;DHT22;1795;52.074;4.754;2022-07-19T09:22:04;29.30;97.10
3562;DHT22;1795;52.074;4.754;2022-07-19T09:24:35;29.40;96.40
3562;DHT22;1795;52.074;4.754;2022-07-19T09:27:05;29.50;95.90
3562;DHT22;1795;52.074;4.754;2022-07-19T09:29:35;29.60;95.20
3562;DHT22;1795;52.074;4.754;2022-07-19T09:32:06;29.70;95.10
3562;DHT22;1795;52.074;4.754;2022-07-19T09:34:36;29.80;95.50
3562;DHT22;1795;52.074;4.754;2022-07-19T09:37:15;29.90;95.00
3562;DHT22;1795;52.074;4.754;2022-07-19T09:39:47;30.00;95.00
3562;DHT22;1795;52.074;4.754;2022-07-19T09:42:18;30.10;94.60
3562;DHT22;1795;52.074;4.754;2022-07-19T09:44:56;30.20;94.30
3562;DHT22;1795;52.074;4.754;2022-07-19T09:47:31;30.30;94.40
3562;DHT22;1795;52.074;4.754;2022-07-19T09:49:59;30.40;93.50
3562;DHT22;1795;52.074;4.754;2022-07-19T09:52:28;30.50;92.50
3562;DHT22;1795;52.074;4.754;2022-07-19T09:55:08;30.50;91.30
3562;DHT22;1795;52.074;4.754;2022-07-19T09:57:39;30.60;91.50
3562;DHT22;1795;52.074;4.754;2022-07-19T10:00:08;30.70;91.30
3562;DHT22;1795;52.074;4.754;2022-07-19T10:02:42;30.90;91.10
3562;DHT22;1795;52.074;4.754;2022-07-19T10:05:12;31.00;91.00
3562;DHT22;1795;52.074;4.754;2022-07-19T10:07:40;31.00;90.80
3562;DHT22;1795;52.074;4.754;2022-07-19T10:10:12;31.10;90.50
3562;DHT22;1795;52.074;4.754;2022-07-19T10:12:42;31.30;90.40
3562;DHT22;1795;52.074;4.754;2022-07-19T10:15:12;31.40;90.20
3562;DHT22;1795;52.074;4.754;2022-07-19T10:17:47;31.50;90.00
3562;DHT22;1795;52.074;4.754;2022-07-19T10:20:21;31.60;90.00
3562;DHT22;1795;52.074;4.754;2022-07-19T10:22:49;31.70;89.20
3562;DHT22;1795;52.074;4.754;2022-07-19T10:25:19;31.80;89.40
3562;DHT22;1795;52.074;4.754;2022-07-19T10:27:49;31.90;88.50
3562;DHT22;1795;52.074;4.754;2022-07-19T10:30:25;32.00;88.70
3562;DHT22;1795;52.074;4.754;2022-07-19T10:32:55;32.10;88.00
3562;DHT22;1795;52.074;4.754;2022-07-19T10:35:28;32.10;86.60
3562;DHT22;1795;52.074;4.754;2022-07-19T10:38:08;32.20;85.90
3562;DHT22;1795;52.074;4.754;2022-07-19T10:40:43;32.30;87.40
3562;DHT22;1795;52.074;4.754;2022-07-19T10:43:12;32.40;85.80
3562;DHT22;1795;52.074;4.754;2022-07-19T10:45:42;32.50;86.90
3562;DHT22;1795;52.074;4.754;2022-07-19T10:48:14;32.60;87.60
3562;DHT22;1795;52.074;4.754;2022-07-19T10:50:56;32.70;85.80
3562;DHT22;1795;52.074;4.754;2022-07-19T10:54:02;32.80;85.50
3562;DHT22;1795;52.074;4.754;2022-07-19T10:56:39;32.90;85.10
3562;DHT22;1795;52.074;4.754;2022-07-19T10:59:40;33.00;84.40
3562;DHT22;1795;52.074;4.754;2022-07-19T11:02:22;33.10;83.50
3562;DHT22;1795;52.074;4.754;2022-07-19T11:05:20;33.20;83.60
3562;DHT22;1795;52.074;4.754;2022-07-19T11:07:49;33.30;83.40
3562;DHT22;1795;52.074;4.754;2022-07-19T11:10:21;33.40;83.40
3562;DHT22;1795;52.074;4.754;2022-07-19T11:12:52;33.40;82.60
3562;DHT22;1795;52.074;4.754;2022-07-19T11:15:20;33.50;83.00
3562;DHT22;1795;52.074;4.754;2022-07-19T11:17:53;33.60;82.50
3562;DHT22;1795;52.074;4.754;2022-07-19T11:20:23;33.60;81.10
3562;DHT22;1795;52.074;4.754;2022-07-19T11:22:53;33.70;81.70
3562;DHT22;1795;52.074;4.754;2022-07-19T11:25:26;33.80;81.80
3562;DHT22;1795;52.074;4.754;2022-07-19T11:27:56;33.90;79.40
3562;DHT22;1795;52.074;4.754;2022-07-19T11:30:27;34.00;78.10
3562;DHT22;1795;52.074;4.754;2022-07-19T11:32:57;34.10;78.00
3562;DHT22;1795;52.074;4.754;2022-07-19T11:35:26;34.10;77.50
3562;DHT22;1795;52.074;4.754;2022-07-19T11:37:56;34.20;76.90
3562;DHT22;1795;52.074;4.754;2022-07-19T11:40:31;34.30;77.30
3562;DHT22;1795;52.074;4.754;2022-07-19T11:43:04;34.40;77.30
3562;DHT22;1795;52.074;4.754;2022-07-19T11:45:45;34.50;77.40
3562;DHT22;1795;52.074;4.754;2022-07-19T11:48:24;34.50;75.30
3562;DHT22;1795;52.074;4.754;2022-07-19T11:51:04;34.50;76.20
3562;DHT22;1795;52.074;4.754;2022-07-19T11:53:33;34.60;75.90
3562;DHT22;1795;52.074;4.754;2022-07-19T11:56:02;34.70;75.90
3562;DHT22;1795;52.074;4.754;2022-07-19T11:58:32;34.80;73.20
3562;DHT22;1795;52.074;4.754;2022-07-19T12:01:05;34.80;73.20
3562;DHT22;1795;52.074;4.754;2022-07-19T12:03:33;34.90;71.70
3562;DHT22;1795;52.074;4.754;2022-07-19T12:06:04;35.00;71.00
3562;DHT22;1795;52.074;4.754;2022-07-19T12:08:38;35.00;69.30
3562;DHT22;1795;52.074;4.754;2022-07-19T12:11:19;35.00;69.10
3562;DHT22;1795;52.074;4.754;2022-07-19T12:13:49;35.10;70.50
3562;DHT22;1795;52.074;4.754;2022-07-19T12:16:18;35.10;71.90
3562;DHT22;1795;52.074;4.754;2022-07-19T12:18:50;35.20;68.90
3562;DHT22;1795;52.074;4.754;2022-07-19T12:21:24;35.30;67.70
3562;DHT22;1795;52.074;4.754;2022-07-19T12:24:23;35.30;67.90
3562;DHT22;1795;52.074;4.754;2022-07-19T12:27:00;35.40;69.00
3562;DHT22;1795;52.074;4.754;2022-07-19T12:29:33;35.40;67.90
3562;DHT22;1795;52.074;4.754;2022-07-19T12:32:05;35.50;68.00
3562;DHT22;1795;52.074;4.754;2022-07-19T12:34:51;35.60;68.80
3562;DHT22;1795;52.074;4.754;2022-07-19T12:37:24;35.70;69.70
3562;DHT22;1795;52.074;4.754;2022-07-19T12:40:02;35.70;67.80
3562;DHT22;1795;52.074;4.754;2022-07-19T12:42:40;35.80;66.80
3562;DHT22;1795;52.074;4.754;2022-07-19T12:45:12;35.80;65.80
3562;DHT22;1795;52.074;4.754;2022-07-19T12:47:40;35.90;67.10
3562;DHT22;1795;52.074;4.754;2022-07-19T12:50:17;35.90;66.40
3562;DHT22;1795;52.074;4.754;2022-07-19T12:52:46;36.00;65.60
3562;DHT22;1795;52.074;4.754;2022-07-19T12:55:14;36.00;66.30
3562;DHT22;1795;52.074;4.754;2022-07-19T12:57:46;36.00;66.70
3562;DHT22;1795;52.074;4.754;2022-07-19T13:00:16;36.10;66.70
3562;DHT22;1795;52.074;4.754;2022-07-19T13:02:46;36.20;66.30
3562;DHT22;1795;52.074;4.754;2022-07-19T13:05:15;36.20;63.80
3562;DHT22;1795;52.074;4.754;2022-07-19T13:07:43;36.20;62.80
3562;DHT22;1795;52.074;4.754;2022-07-19T13:10:11;36.30;63.70
3562;DHT22;1795;52.074;4.754;2022-07-19T13:12:39;36.30;60.30
3562;DHT22;1795;52.074;4.754;2022-07-19T13:15:09;36.40;62.90
3562;DHT22;1795;52.074;4.754;2022-07-19T13:17:41;36.40;62.60
3562;DHT22;1795;52.074;4.754;2022-07-19T13:20:10;36.50;62.30
3562;DHT22;1795;52.074;4.754;2022-07-19T13:22:39;36.50;62.30
3562;DHT22;1795;52.074;4.754;2022-07-19T13:25:09;36.50;60.00
3562;DHT22;1795;52.074;4.754;2022-07-19T13:27:58;36.60;61.50
3562;DHT22;1795;52.074;4.754;2022-07-19T13:30:26;36.60;61.10
3562;DHT22;1795;52.074;4.754;2022-07-19T13:32:55;36.70;61.00
3562;DHT22;1795;52.074;4.754;2022-07-19T13:35:23;36.70;60.30
3562;DHT22;1795;52.074;4.754;2022-07-19T13:37:51;36.70;59.40
3562;DHT22;1795;52.074;4.754;2022-07-19T13:40:19;36.80;59.90
3562;DHT22;1795;52.074;4.754;2022-07-19T13:42:47;36.90;59.20
3562;DHT22;1795;52.074;4.754;2022-07-19T13:45:15;36.90;58.60
3562;DHT22;1795;52.074;4.754;2022-07-19T13:47:43;37.00;58.50
3562;DHT22;1795;52.074;4.754;2022-07-19T13:50:12;37.10;58.70
3562;DHT22;1795;52.074;4.754;2022-07-19T13:52:40;37.10;56.80
3562;DHT22;1795;52.074;4.754;2022-07-19T13:55:09;37.10;57.10
3562;DHT22;1795;52.074;4.754;2022-07-19T13:57:37;37.20;56.70
3562;DHT22;1795;52.074;4.754;2022-07-19T14:00:06;37.30;56.00
3562;DHT22;1795;52.074;4.754;2022-07-19T14:02:35;37.30;56.10
3562;DHT22;1795;52.074;4.754;2022-07-19T14:05:05;37.50;55.60
3562;DHT22;1795;52.074;4.754;2022-07-19T14:07:34;37.50;55.70
3562;DHT22;1795;52.074;4.754;2022-07-19T14:10:03;37.60;55.60
3562;DHT22;1795;52.074;4.754;2022-07-19T14:12:31;37.70;55.70
3562;DHT22;1795;52.074;4.754;2022-07-19T14:14:59;37.80;54.40
3562;DHT22;1795;52.074;4.754;2022-07-19T14:17:29;37.80;53.90
3562;DHT22;1795;52.074;4.754;2022-07-19T14:19:57;37.90;53.00
3562;DHT22;1795;52.074;4.754;2022-07-19T14:22:25;38.00;52.10
3562;DHT22;1795;52.074;4.754;2022-07-19T14:24:55;38.10;51.80
3562;DHT22;1795;52.074;4.754;2022-07-19T14:27:23;38.20;51.80
3562;DHT22;1795;52.074;4.754;2022-07-19T14:29:51;38.20;52.20
3562;DHT22;1795;52.074;4.754;2022-07-19T14:32:19;38.30;51.10
3562;DHT22;1795;52.074;4.754;2022-07-19T14:34:47;38.40;50.90
3562;DHT22;1795;52.074;4.754;2022-07-19T14:37:15;38.50;51.10
3562;DHT22;1795;52.074;4.754;2022-07-19T14:39:43;38.60;51.60
3562;DHT22;1795;52.074;4.754;2022-07-19T14:42:12;38.60;48.20
3562;DHT22;1795;52.074;4.754;2022-07-19T14:44:41;38.60;48.80
3562;DHT22;1795;52.074;4.754;2022-07-19T14:47:09;38.70;49.70
3562;DHT22;1795;52.074;4.754;2022-07-19T14:49:38;38.80;48.90
3562;DHT22;1795;52.074;4.754;2022-07-19T14:52:06;38.80;48.20
3562;DHT22;1795;52.074;4.754;2022-07-19T14:54:35;38.90;47.80
3562;DHT22;1795;52.074;4.754;2022-07-19T14:57:03;38.90;48.10
3562;DHT22;1795;52.074;4.754;2022-07-19T14:59:32;39.00;46.10
3562;DHT22;1795;52.074;4.754;2022-07-19T15:02:00;39.00;46.30
3562;DHT22;1795;52.074;4.754;2022-07-19T15:04:29;39.10;47.00
3562;DHT22;1795;52.074;4.754;2022-07-19T15:06:57;39.10;47.50
3562;DHT22;1795;52.074;4.754;2022-07-19T15:09:25;39.20;47.00
3562;DHT22;1795;52.074;4.754;2022-07-19T15:11:53;39.20;46.80
3562;DHT22;1795;52.074;4.754;2022-07-19T15:14:21;39.30;47.40
3562;DHT22;1795;52.074;4.754;2022-07-19T15:16:50;39.30;46.80
3562;DHT22;1795;52.074;4.754;2022-07-19T15:19:18;39.30;46.90
3562;DHT22;1795;52.074;4.754;2022-07-19T15:21:46;39.40;47.60
3562;DHT22;1795;52.074;4.754;2022-07-19T15:24:14;39.30;47.80
3562;DHT22;1795;52.074;4.754;2022-07-19T15:26:42;39.40;45.60
3562;DHT22;1795;52.074;4.754;2022-07-19T15:29:10;39.40;45.50
3562;DHT22;1795;52.074;4.754;2022-07-19T15:31:39;39.50;46.00
3562;DHT22;1795;52.074;4.754;2022-07-19T15:34:08;39.50;46.50
3562;DHT22;1795;52.074;4.754;2022-07-19T15:36:36;39.50;47.10
3562;DHT22;1795;52.074;4.754;2022-07-19T15:39:05;39.50;46.70
3562;DHT22;1795;52.074;4.754;2022-07-19T15:41:34;39.60;46.90
3562;DHT22;1795;52.074;4.754;2022-07-19T15:44:02;39.60;45.50
3562;DHT22;1795;52.074;4.754;2022-07-19T15:46:31;39.60;44.60
3562;DHT22;1795;52.074;4.754;2022-07-19T15:49:07;39.60;44.50
3562;DHT22;1795;52.074;4.754;2022-07-19T15:51:35;39.60;42.00
3562;DHT22;1795;52.074;4.754;2022-07-19T15:54:06;39.60;43.00
3562;DHT22;1795;52.074;4.754;2022-07-19T15:56:34;39.60;40.50
3562;DHT22;1795;52.074;4.754;2022-07-19T15:59:02;39.60;41.00
3562;DHT22;1795;52.074;4.754;2022-07-19T16:01:30;39.60;42.40
3562;DHT22;1795;52.074;4.754;2022-07-19T16:03:58;39.60;42.60
3562;DHT22;1795;52.074;4.754;2022-07-19T16:06:28;39.60;42.70
3562;DHT22;1795;52.074;4.754;2022-07-19T16:08:56;39.60;41.60
3562;DHT22;1795;52.074;4.754;2022-07-19T16:11:24;39.50;42.10
3562;DHT22;1795;52.074;4.754;2022-07-19T16:13:52;39.50;43.90
3562;DHT22;1795;52.074;4.754;2022-07-19T16:16:20;39.50;44.40
3562;DHT22;1795;52.074;4.754;2022-07-19T16:18:48;39.50;43.20